Check out our new BloomSky Weather System.

Active alerts


No alerts


Thunder radar  blitzortung!


Rain radar more information rain snow radar


Visit our other weather sites:

Template documentation
and downloads

And another site



Weather Underground History page Text

Daily Summary for January 28, 2017 Units:  English    Metric   Both
« Previous Day
Next Day »
Daily Weekly Monthly Yearly Custom
  High: Low: Average:
Temperature: 60.6 °F 41.7 °F 50.9 °F
Dew Point: 37.6 °F 26.6 °F 32.2 °F
Humidity: 69 % 29 % 50 %
Wind Speed: 8.0 mph 0.0 mph 1.8 mph
Wind Gust: 14.0 mph - -
Wind:- - West
Pressure: 30.38 in 30.21 in -
Precipitation: 0.00 in    
Historical Graphs
 
 
Tabular Data for January 28, 2017
Time Temperature Dew Point Pressure Wind Wind Speed Wind Gust Humidity Rainfall Rate (Hourly)
00:01 49.3 °F 29.8 °F 30.31 in NW 2.0 mph 3.0 mph 47 % 0.00 in
00:06 49.3 °F 29.8 °F 30.31 in Calm   3.0 mph 47 % 0.00 in
00:11 49.3 °F 30.4 °F 30.31 in Calm   3.0 mph 48 % 0.00 in
00:16 49.3 °F 30.9 °F 30.31 in Calm   2.0 mph 49 % 0.00 in
00:21 49.1 °F 31.3 °F 30.31 in Calm   1.0 mph 50 % 0.00 in
00:26 48.9 °F 31.6 °F 30.31 in Calm   1.0 mph 51 % 0.00 in
00:31 48.7 °F 30.9 °F 30.30 in West 1.0 mph 1.0 mph 50 % 0.00 in
00:36 48.7 °F 30.9 °F 30.31 in WNW 1.0 mph 1.0 mph 50 % 0.00 in
00:41 48.7 °F 31.5 °F 30.31 in Calm   1.0 mph 51 % 0.00 in
00:46 48.7 °F 30.9 °F 30.31 in NNW 2.0 mph 2.0 mph 50 % 0.00 in
00:51 48.7 °F 30.9 °F 30.31 in Calm   2.0 mph 50 % 0.00 in
00:56 48.7 °F 31.5 °F 30.31 in Calm   2.0 mph 51 % 0.00 in
01:01 48.6 °F 31.3 °F 30.31 in West 1.0 mph 2.0 mph 51 % 0.00 in
01:06 48.6 °F 31.3 °F 30.31 in NW 1.0 mph 2.0 mph 51 % 0.00 in
01:11 48.6 °F 31.3 °F 30.31 in NW 1.0 mph 3.0 mph 51 % 0.00 in
01:16 48.6 °F 31.3 °F 30.31 in NNW 1.0 mph 3.0 mph 51 % 0.00 in
01:21 48.6 °F 31.8 °F 30.32 in NW 3.0 mph 4.0 mph 52 % 0.00 in
01:26 48.6 °F 31.8 °F 30.31 in NW 2.0 mph 5.0 mph 52 % 0.00 in
01:31 48.6 °F 31.8 °F 30.31 in NW 2.0 mph 5.0 mph 52 % 0.00 in
01:36 48.6 °F 32.2 °F 30.30 in Calm   5.0 mph 53 % 0.00 in
01:41 48.6 °F 32.2 °F 30.31 in NNW 2.0 mph 5.0 mph 53 % 0.00 in
01:46 48.6 °F 32.2 °F 30.31 in NW 2.0 mph 5.0 mph 53 % 0.00 in
01:51 48.7 °F 32.4 °F 30.31 in WNW 3.0 mph 5.0 mph 53 % 0.00 in
01:56 48.6 °F 32.2 °F 30.31 in NW 3.0 mph 5.0 mph 53 % 0.00 in
02:01 48.6 °F 32.7 °F 30.31 in NW 3.0 mph 4.0 mph 54 % 0.00 in
02:06 48.7 °F 32.4 °F 30.31 in NW 3.0 mph 7.0 mph 53 % 0.00 in
02:11 48.7 °F 32.4 °F 30.30 in NW 3.0 mph 7.0 mph 53 % 0.00 in
02:16 48.7 °F 32.9 °F 30.31 in NW 2.0 mph 7.0 mph 54 % 0.00 in
02:21 48.7 °F 32.9 °F 30.31 in NW 3.0 mph 7.0 mph 54 % 0.00 in
02:26 48.7 °F 33.3 °F 30.30 in WNW 2.0 mph 5.0 mph 55 % 0.00 in
02:31 48.9 °F 33.1 °F 30.30 in NW 1.0 mph 5.0 mph 54 % 0.00 in
02:36 48.9 °F 33.1 °F 30.30 in NW 2.0 mph 6.0 mph 54 % 0.00 in
02:42 48.9 °F 33.1 °F 30.30 in NW 4.0 mph 6.0 mph 54 % 0.00 in
02:47 49.1 °F 32.7 °F 30.29 in NNW 4.0 mph 9.0 mph 53 % 0.00 in
02:52 49.3 °F 32.9 °F 30.28 in WNW 5.0 mph 9.0 mph 53 % 0.00 in
02:57 49.3 °F 32.4 °F 30.28 in NNW 3.0 mph 9.0 mph 52 % 0.00 in
03:02 49.3 °F 32.4 °F 30.28 in WNW 5.0 mph 9.0 mph 52 % 0.00 in
03:07 49.3 °F 32.0 °F 30.27 in West 4.0 mph 9.0 mph 51 % 0.00 in
03:12 49.5 °F 32.0 °F 30.27 in NW 7.0 mph 10.0 mph 51 % 0.00 in
03:17 49.5 °F 32.0 °F 30.27 in NW 4.0 mph 10.0 mph 51 % 0.00 in
03:22 49.5 °F 32.0 °F 30.26 in NNW 2.0 mph 10.0 mph 51 % 0.00 in
03:27 49.3 °F 32.0 °F 30.25 in NW 6.0 mph 9.0 mph 51 % 0.00 in
03:32 49.3 °F 31.5 °F 30.25 in NNW 6.0 mph 8.0 mph 50 % 0.00 in
03:37 49.5 °F 31.1 °F 30.25 in NW 6.0 mph 9.0 mph 49 % 0.00 in
03:42 49.5 °F 30.6 °F 30.26 in NW 2.0 mph 10.0 mph 48 % 0.00 in
03:47 49.5 °F 31.1 °F 30.27 in NNW 3.0 mph 10.0 mph 49 % 0.00 in
03:52 49.5 °F 30.6 °F 30.27 in NNW 1.0 mph 10.0 mph 48 % 0.00 in
03:57 49.5 °F 30.6 °F 30.27 in NW 5.0 mph 8.0 mph 48 % 0.00 in
04:02 49.5 °F 31.1 °F 30.27 in NW 4.0 mph 8.0 mph 49 % 0.00 in
04:07 49.5 °F 30.6 °F 30.27 in NNW 1.0 mph 6.0 mph 48 % 0.00 in
04:12 49.5 °F 30.6 °F 30.27 in NNW 2.0 mph 7.0 mph 48 % 0.00 in
04:17 49.5 °F 30.6 °F 30.27 in West 1.0 mph 7.0 mph 48 % 0.00 in
04:22 49.5 °F 30.6 °F 30.28 in WNW 1.0 mph 7.0 mph 48 % 0.00 in
04:27 49.3 °F 30.9 °F 30.29 in Calm   5.0 mph 49 % 0.00 in
04:32 49.3 °F 30.9 °F 30.28 in NW 2.0 mph 4.0 mph 49 % 0.00 in
04:37 49.1 °F 30.7 °F 30.29 in WNW 1.0 mph 3.0 mph 49 % 0.00 in
04:42 48.9 °F 31.1 °F 30.30 in Calm   3.0 mph 50 % 0.00 in
04:47 48.9 °F 31.6 °F 30.30 in Calm   3.0 mph 51 % 0.00 in
04:52 48.7 °F 31.8 °F 30.30 in Calm   2.0 mph 52 % 0.00 in
04:57 48.7 °F 31.8 °F 30.30 in Calm   2.0 mph 52 % 0.00 in
05:02 48.6 °F 31.8 °F 30.30 in Calm   2.0 mph 52 % 0.00 in
05:07 48.6 °F 32.2 °F 30.31 in Calm   1.0 mph 53 % 0.00 in
05:12 48.4 °F 32.5 °F 30.31 in WNW 1.0 mph 1.0 mph 54 % 0.00 in
05:17 48.4 °F 32.0 °F 30.31 in Calm   3.0 mph 53 % 0.00 in
05:22 48.4 °F 32.0 °F 30.31 in WSW 1.0 mph 3.0 mph 53 % 0.00 in
05:27 48.4 °F 32.0 °F 30.31 in Calm   3.0 mph 53 % 0.00 in
05:32 48.4 °F 32.0 °F 30.31 in Calm   3.0 mph 53 % 0.00 in
05:37 48.4 °F 32.5 °F 30.32 in WNW 1.0 mph 3.0 mph 54 % 0.00 in
05:42 48.2 °F 32.4 °F 30.32 in Calm   3.0 mph 54 % 0.00 in
05:47 48.0 °F 32.2 °F 30.32 in Calm   2.0 mph 54 % 0.00 in
05:52 48.0 °F 32.5 °F 30.32 in Calm   2.0 mph 55 % 0.00 in
05:57 47.8 °F 33.3 °F 30.32 in Calm   1.0 mph 57 % 0.00 in
06:02 47.7 °F 33.3 °F 30.32 in Calm   2.0 mph 57 % 0.00 in
06:07 47.7 °F 33.6 °F 30.33 in Calm   2.0 mph 58 % 0.00 in
06:12 47.5 °F 33.4 °F 30.32 in NNW 2.0 mph 3.0 mph 58 % 0.00 in
06:17 47.7 °F 33.6 °F 30.33 in Calm   3.0 mph 58 % 0.00 in
06:22 47.7 °F 33.6 °F 30.33 in Calm   3.0 mph 58 % 0.00 in
06:27 47.7 °F 34.0 °F 30.32 in Calm   3.0 mph 59 % 0.00 in
06:32 47.5 °F 33.8 °F 30.32 in WSW 1.0 mph 2.0 mph 59 % 0.00 in
06:37 47.5 °F 33.8 °F 30.33 in WSW 1.0 mph 2.0 mph 59 % 0.00 in
06:42 47.5 °F 33.8 °F 30.33 in Calm   2.0 mph 59 % 0.00 in
06:47 47.5 °F 34.3 °F 30.33 in SW 1.0 mph 2.0 mph 60 % 0.00 in
06:52 47.3 °F 34.2 °F 30.33 in Calm   2.0 mph 60 % 0.00 in
06:57 47.1 °F 34.3 °F 30.33 in Calm   2.0 mph 61 % 0.00 in
07:02 47.1 °F 34.7 °F 30.33 in WSW 1.0 mph 2.0 mph 62 % 0.00 in
07:07 46.9 °F 34.5 °F 30.34 in WSW 2.0 mph 2.0 mph 62 % 0.00 in
07:12 46.9 °F 34.5 °F 30.34 in Calm   3.0 mph 62 % 0.00 in
07:17 47.1 °F 34.7 °F 30.34 in WSW 1.0 mph 4.0 mph 62 % 0.00 in
07:22 47.1 °F 34.7 °F 30.34 in SW 1.0 mph 4.0 mph 62 % 0.00 in
07:27 46.9 °F 34.5 °F 30.34 in Calm   4.0 mph 62 % 0.00 in
07:32 46.9 °F 35.1 °F 30.35 in Calm   2.0 mph 63 % 0.00 in
07:37 46.9 °F 35.4 °F 30.35 in Calm   2.0 mph 64 % 0.00 in
07:42 46.9 °F 35.4 °F 30.35 in WNW 2.0 mph 3.0 mph 64 % 0.00 in
07:47 46.9 °F 35.4 °F 30.35 in WSW 2.0 mph 3.0 mph 64 % 0.00 in
07:52 46.9 °F 35.8 °F 30.35 in WSW 1.0 mph 3.0 mph 65 % 0.00 in
07:57 47.1 °F 36.0 °F 30.36 in Calm   4.0 mph 65 % 0.00 in
08:02 47.1 °F 36.0 °F 30.36 in Calm   5.0 mph 65 % 0.00 in
08:07 47.1 °F 36.0 °F 30.36 in West 2.0 mph 5.0 mph 65 % 0.00 in
08:12 47.3 °F 36.5 °F 30.37 in WSW 1.0 mph 5.0 mph 66 % 0.00 in
08:17 47.5 °F 36.3 °F 30.36 in West 6.0 mph 6.0 mph 65 % 0.00 in
08:22 47.5 °F 36.0 °F 30.37 in SSE 1.0 mph 8.0 mph 64 % 0.00 in
08:27 47.7 °F 36.1 °F 30.37 in Calm   8.0 mph 64 % 0.00 in
08:32 47.7 °F 36.1 °F 30.37 in NW 4.0 mph 8.0 mph 64 % 0.00 in
08:37 47.7 °F 36.1 °F 30.37 in West 3.0 mph 8.0 mph 64 % 0.00 in
08:42 47.8 °F 36.3 °F 30.38 in NW 4.0 mph 8.0 mph 64 % 0.00 in
08:47 48.0 °F 36.5 °F 30.38 in Calm   7.0 mph 64 % 0.00 in
08:52 48.2 °F 36.7 °F 30.37 in WSW 5.0 mph 5.0 mph 64 % 0.00 in
08:57 48.4 °F 36.3 °F 30.37 in NNW 1.0 mph 8.0 mph 63 % 0.00 in
09:02 48.4 °F 36.3 °F 30.37 in West 1.0 mph 8.0 mph 63 % 0.00 in
09:07 48.4 °F 36.3 °F 30.37 in North 1.0 mph 8.0 mph 63 % 0.00 in
09:12 48.6 °F 36.1 °F 30.38 in NNW 5.0 mph 8.0 mph 62 % 0.00 in
09:17 48.7 °F 36.3 °F 30.38 in Calm   9.0 mph 62 % 0.00 in
09:22 49.1 °F 36.3 °F 30.38 in NW 2.0 mph 9.0 mph 61 % 0.00 in
09:27 49.3 °F 36.9 °F 30.38 in NW 3.0 mph 9.0 mph 62 % 0.00 in
09:32 49.5 °F 36.5 °F 30.38 in NW 3.0 mph 7.0 mph 61 % 0.00 in
09:37 49.6 °F 36.3 °F 30.37 in NW 4.0 mph 7.0 mph 60 % 0.00 in
09:42 49.6 °F 36.3 °F 30.38 in NNW 2.0 mph 8.0 mph 60 % 0.00 in
09:47 49.8 °F 36.5 °F 30.38 in NW 7.0 mph 8.0 mph 60 % 0.00 in
09:52 50.4 °F 36.1 °F 30.38 in NNW 4.0 mph 8.0 mph 58 % 0.00 in
09:57 50.5 °F 36.7 °F 30.38 in Calm   8.0 mph 59 % 0.00 in
10:02 50.7 °F 35.6 °F 30.38 in NW 5.0 mph 8.0 mph 56 % 0.00 in
10:07 51.1 °F 36.0 °F 30.38 in WNW 3.0 mph 8.0 mph 56 % 0.00 in
10:12 51.6 °F 36.5 °F 30.38 in WSW 1.0 mph 8.0 mph 56 % 0.00 in
10:17 51.8 °F 35.6 °F 30.38 in West 3.0 mph 9.0 mph 54 % 0.00 in
10:22 51.6 °F 35.6 °F 30.37 in NNE 5.0 mph 9.0 mph 54 % 0.00 in
10:28 51.4 °F 35.8 °F 30.37 in West 2.0 mph 9.0 mph 55 % 0.00 in
10:33 51.8 °F 36.1 °F 30.37 in NNW 3.0 mph 8.0 mph 55 % 0.00 in
10:38 52.2 °F 36.0 °F 30.36 in WNW 3.0 mph 8.0 mph 54 % 0.00 in
10:43 52.5 °F 35.4 °F 30.36 in WNW 5.0 mph 8.0 mph 52 % 0.00 in
10:48 52.2 °F 34.5 °F 30.37 in NW 5.0 mph 8.0 mph 51 % 0.00 in
10:53 52.3 °F 36.1 °F 30.37 in Calm   11.0 mph 54 % 0.00 in
10:58 53.1 °F 36.9 °F 30.36 in SW 1.0 mph 11.0 mph 54 % 0.00 in
11:03 53.8 °F 36.5 °F 30.36 in West 2.0 mph 11.0 mph 52 % 0.00 in
11:08 54.3 °F 37.6 °F 30.36 in NNE 2.0 mph 8.0 mph 53 % 0.00 in
11:13 54.1 °F 34.9 °F 30.35 in NNW 3.0 mph 9.0 mph 48 % 0.00 in
11:18 54.3 °F 35.6 °F 30.35 in NNW 7.0 mph 10.0 mph 49 % 0.00 in
11:23 54.0 °F 36.7 °F 30.35 in WNW 3.0 mph 10.0 mph 52 % 0.00 in
11:28 54.3 °F 36.5 °F 30.36 in WNW 2.0 mph 10.0 mph 51 % 0.00 in
11:33 54.3 °F 36.1 °F 30.35 in WSW 6.0 mph 10.0 mph 50 % 0.00 in
11:38 54.7 °F 36.3 °F 30.35 in WSW 3.0 mph 9.0 mph 50 % 0.00 in
11:43 55.0 °F 36.1 °F 30.35 in West 7.0 mph 7.0 mph 49 % 0.00 in
11:48 55.9 °F 36.5 °F 30.35 in SW 2.0 mph 7.0 mph 48 % 0.00 in
11:53 55.9 °F 34.9 °F 30.34 in NW 4.0 mph 9.0 mph 45 % 0.00 in
11:58 55.8 °F 34.7 °F 30.34 in WNW 2.0 mph 10.0 mph 45 % 0.00 in
12:03 56.5 °F 35.4 °F 30.33 in WSW 2.0 mph 10.0 mph 45 % 0.00 in
12:08 57.0 °F 35.2 °F 30.33 in West 2.0 mph 10.0 mph 44 % 0.00 in
12:13 57.4 °F 35.6 °F 30.33 in West 1.0 mph 9.0 mph 44 % 0.00 in
12:15 57.6 °F 35.2 °F 30.33 in West 1.0 mph 9.0 mph 43 % 0.00 in
12:20 57.2 °F 32.5 °F 30.32 in NNE 3.0 mph 10.0 mph 39 % 0.00 in
12:25 56.7 °F 32.0 °F 30.32 in North 2.0 mph 10.0 mph 39 % 0.00 in
12:30 56.8 °F 32.7 °F 30.32 in WNW 2.0 mph 10.0 mph 40 % 0.00 in
12:35 57.0 °F 32.4 °F 30.31 in NW 3.0 mph 10.0 mph 39 % 0.00 in
12:40 56.8 °F 31.5 °F 30.31 in NW 6.0 mph 8.0 mph 38 % 0.00 in
12:45 56.7 °F 32.5 °F 30.31 in North 4.0 mph 10.0 mph 40 % 0.00 in
12:50 57.4 °F 32.5 °F 30.31 in WNW 4.0 mph 10.0 mph 39 % 0.00 in
12:55 58.3 °F 32.2 °F 30.30 in NNE 1.0 mph 10.0 mph 37 % 0.00 in
13:00 57.7 °F 31.6 °F 30.30 in WSW 2.0 mph 10.0 mph 37 % 0.00 in
13:05 58.3 °F 32.7 °F 30.30 in SE 1.0 mph 10.0 mph 38 % 0.00 in
13:10 58.3 °F 30.7 °F 30.29 in NNW 3.0 mph 10.0 mph 35 % 0.00 in
13:15 58.1 °F 30.6 °F 30.29 in NNW 4.0 mph 10.0 mph 35 % 0.00 in
13:20 57.7 °F 30.9 °F 30.29 in SSW 3.0 mph 11.0 mph 36 % 0.00 in
13:25 57.2 °F 30.6 °F 30.28 in NW 6.0 mph 11.0 mph 36 % 0.00 in
13:30 57.9 °F 32.5 °F 30.28 in WNW 1.0 mph 11.0 mph 38 % 0.00 in
13:35 59.0 °F 32.7 °F 30.27 in WSW 4.0 mph 10.0 mph 37 % 0.00 in
13:40 59.5 °F 32.5 °F 30.27 in SSW 2.0 mph 10.0 mph 36 % 0.00 in
13:45 59.5 °F 33.3 °F 30.27 in WSW 1.0 mph 8.0 mph 37 % 0.00 in
13:50 59.9 °F 32.9 °F 30.26 in WSW 4.0 mph 8.0 mph 36 % 0.00 in
13:55 59.4 °F 31.6 °F 30.26 in NNW 7.0 mph 10.0 mph 35 % 0.00 in
14:00 59.2 °F 32.2 °F 30.26 in NNW 5.0 mph 10.0 mph 36 % 0.00 in
14:01 59.4 °F 32.4 °F 30.26 in ENE 1.0 mph 10.0 mph 36 % 0.00 in
14:06 59.7 °F 31.3 °F 30.25 in WSW 6.0 mph 10.0 mph 34 % 0.00 in
14:11 59.7 °F 29.8 °F 30.25 in WNW 7.0 mph 10.0 mph 32 % 0.00 in
14:16 59.2 °F 29.3 °F 30.25 in WNW 4.0 mph 11.0 mph 32 % 0.00 in
14:21 59.7 °F 29.8 °F 30.25 in WSW 3.0 mph 11.0 mph 32 % 0.00 in
14:26 59.9 °F 30.0 °F 30.24 in NW 4.0 mph 11.0 mph 32 % 0.00 in
14:31 59.9 °F 30.0 °F 30.24 in WNW 5.0 mph 10.0 mph 32 % 0.00 in
14:36 59.5 °F 28.0 °F 30.24 in NW 4.0 mph 11.0 mph 30 % 0.00 in
14:41 59.5 °F 31.1 °F 30.23 in NNW 4.0 mph 11.0 mph 34 % 0.00 in
14:46 60.3 °F 30.2 °F 30.23 in NW 3.0 mph 11.0 mph 32 % 0.00 in
14:51 60.3 °F 30.2 °F 30.23 in NNW 2.0 mph 10.0 mph 32 % 0.00 in
14:56 59.7 °F 28.9 °F 30.23 in NNW 4.0 mph 12.0 mph 31 % 0.00 in
15:01 59.5 °F 28.9 °F 30.22 in WNW 8.0 mph 12.0 mph 31 % 0.00 in
15:06 59.5 °F 29.7 °F 30.22 in North 5.0 mph 12.0 mph 32 % 0.00 in
15:11 60.3 °F 31.1 °F 30.22 in WNW 3.0 mph 12.0 mph 33 % 0.00 in
15:16 60.4 °F 32.0 °F 30.22 in WSW 3.0 mph 12.0 mph 34 % 0.00 in
15:21 60.4 °F 31.3 °F 30.22 in SW 3.0 mph 8.0 mph 33 % 0.00 in
15:26 60.6 °F 31.3 °F 30.22 in Calm   8.0 mph 33 % 0.00 in
15:31 60.4 °F 29.7 °F 30.22 in North 2.0 mph 8.0 mph 31 % 0.00 in
15:36 60.4 °F 30.4 °F 30.22 in ENE 6.0 mph 7.0 mph 32 % 0.00 in
15:41 60.6 °F 30.6 °F 30.21 in SW 1.0 mph 7.0 mph 32 % 0.00 in
15:46 60.6 °F 28.9 °F 30.21 in NNW 7.0 mph 13.0 mph 30 % 0.00 in
15:51 60.4 °F 28.9 °F 30.22 in SW 4.0 mph 13.0 mph 30 % 0.00 in
15:56 60.4 °F 28.0 °F 30.22 in WNW 3.0 mph 13.0 mph 29 % 0.00 in
16:01 60.4 °F 28.9 °F 30.22 in WNW 2.0 mph 13.0 mph 30 % 0.00 in
16:06 60.4 °F 28.9 °F 30.22 in West 4.0 mph 13.0 mph 30 % 0.00 in
16:11 60.6 °F 28.9 °F 30.22 in WNW 4.0 mph 11.0 mph 30 % 0.00 in
16:16 60.3 °F 28.8 °F 30.22 in Calm   11.0 mph 30 % 0.00 in
16:21 60.4 °F 29.7 °F 30.22 in WNW 4.0 mph 11.0 mph 31 % 0.00 in
16:26 60.3 °F 28.8 °F 30.22 in WNW 4.0 mph 11.0 mph 30 % 0.00 in
16:31 60.1 °F 27.7 °F 30.22 in WNW 7.0 mph 14.0 mph 29 % 0.00 in
16:36 59.9 °F 28.4 °F 30.22 in North 2.0 mph 14.0 mph 30 % 0.00 in
16:41 59.7 °F 27.3 °F 30.22 in WNW 1.0 mph 14.0 mph 29 % 0.00 in
16:46 59.7 °F 28.2 °F 30.22 in NW 2.0 mph 13.0 mph 30 % 0.00 in
16:51 59.7 °F 28.2 °F 30.22 in NW 2.0 mph 12.0 mph 30 % 0.00 in
16:56 59.5 °F 28.0 °F 30.22 in West 1.0 mph 9.0 mph 30 % 0.00 in
17:01 59.5 °F 28.0 °F 30.22 in NNW 7.0 mph 8.0 mph 30 % 0.00 in
17:06 59.4 °F 27.9 °F 30.22 in West 2.0 mph 9.0 mph 30 % 0.00 in
17:11 59.2 °F 27.7 °F 30.22 in WNW 6.0 mph 9.0 mph 30 % 0.00 in
17:16 59.0 °F 28.4 °F 30.22 in WNW 3.0 mph 11.0 mph 31 % 0.00 in
17:22 58.8 °F 28.2 °F 30.22 in WNW 3.0 mph 11.0 mph 31 % 0.00 in
17:27 58.6 °F 27.3 °F 30.22 in NW 3.0 mph 11.0 mph 30 % 0.00 in
17:32 58.3 °F 27.0 °F 30.22 in NW 3.0 mph 9.0 mph 30 % 0.00 in
17:37 57.9 °F 26.6 °F 30.22 in NNE 3.0 mph 11.0 mph 30 % 0.00 in
17:42 57.9 °F 26.6 °F 30.23 in NW 3.0 mph 13.0 mph 30 % 0.00 in
17:47 57.7 °F 27.3 °F 30.22 in WNW 3.0 mph 13.0 mph 31 % 0.00 in
17:52 57.4 °F 27.7 °F 30.23 in Calm   13.0 mph 32 % 0.00 in
17:57 57.0 °F 28.2 °F 30.23 in NW 1.0 mph 10.0 mph 33 % 0.00 in
18:02 56.7 °F 27.9 °F 30.23 in WNW 1.0 mph 6.0 mph 33 % 0.00 in
18:07 56.3 °F 28.2 °F 30.23 in WNW 1.0 mph 4.0 mph 34 % 0.00 in
18:12 55.8 °F 27.9 °F 30.23 in WSW 1.0 mph 3.0 mph 34 % 0.00 in
18:17 55.4 °F 28.2 °F 30.23 in North 1.0 mph 3.0 mph 35 % 0.00 in
18:22 55.0 °F 28.6 °F 30.23 in Calm   2.0 mph 36 % 0.00 in
18:27 54.7 °F 28.2 °F 30.24 in Calm   2.0 mph 36 % 0.00 in
18:32 54.1 °F 28.4 °F 30.24 in Calm   2.0 mph 37 % 0.00 in
18:37 53.6 °F 28.6 °F 30.24 in Calm   2.0 mph 38 % 0.00 in
18:42 52.9 °F 28.6 °F 30.24 in Calm   1.0 mph 39 % 0.00 in
18:47 52.2 °F 28.6 °F 30.24 in Calm   1.0 mph 40 % 0.00 in
18:52 51.4 °F 28.6 °F 30.24 in Calm   1.0 mph 41 % 0.00 in
18:57 50.5 °F 28.9 °F 30.24 in Calm   1.0 mph 43 % 0.00 in
19:02 49.8 °F 28.8 °F 30.24 in Calm     44 % 0.00 in
19:07 49.1 °F 29.1 °F 30.25 in Calm     46 % 0.00 in
19:12 48.7 °F 29.5 °F 30.25 in Calm     47 % 0.00 in
19:17 48.4 °F 29.7 °F 30.25 in Calm     48 % 0.00 in
19:22 48.0 °F 30.2 °F 30.25 in Calm     50 % 0.00 in
19:27 48.0 °F 30.2 °F 30.25 in Calm     50 % 0.00 in
19:32 47.8 °F 30.6 °F 30.25 in Calm     51 % 0.00 in
19:38 47.3 °F 30.6 °F 30.25 in Calm     52 % 0.00 in
19:43 46.8 °F 30.9 °F 30.25 in Calm     54 % 0.00 in
19:48 46.0 °F 30.4 °F 30.25 in Calm     54 % 0.00 in
19:53 45.5 °F 31.1 °F 30.26 in Calm     57 % 0.00 in
19:58 45.3 °F 31.5 °F 30.25 in Calm     58 % 0.00 in
20:03 45.0 °F 30.6 °F 30.25 in Calm     57 % 0.00 in
20:08 44.4 °F 30.6 °F 30.25 in Calm     58 % 0.00 in
20:13 44.1 °F 31.1 °F 30.25 in Calm     60 % 0.00 in
20:18 44.1 °F 31.8 °F 30.25 in Calm     62 % 0.00 in
20:23 43.9 °F 31.6 °F 30.26 in Calm     62 % 0.00 in
20:28 43.9 °F 31.6 °F 30.26 in Calm     62 % 0.00 in
20:33 43.9 °F 32.2 °F 30.26 in Calm     63 % 0.00 in
20:38 43.9 °F 32.2 °F 30.26 in Calm     63 % 0.00 in
20:43 44.1 °F 32.4 °F 30.26 in Calm     63 % 0.00 in
20:48 44.1 °F 32.7 °F 30.26 in Calm     64 % 0.00 in
20:53 44.1 °F 32.7 °F 30.26 in Calm   1.0 mph 64 % 0.00 in
20:58 44.1 °F 33.1 °F 30.26 in Calm   1.0 mph 65 % 0.00 in
21:02 44.1 °F 33.1 °F 30.26 in Calm   1.0 mph 65 % 0.00 in
21:07 44.1 °F 32.7 °F 30.26 in Calm   1.0 mph 64 % 0.00 in
21:12 43.9 °F 32.9 °F 30.27 in Calm   1.0 mph 65 % 0.00 in
21:17 43.7 °F 32.7 °F 30.27 in Calm     65 % 0.00 in
21:22 43.5 °F 32.5 °F 30.27 in Calm     65 % 0.00 in
21:27 43.3 °F 32.0 °F 30.27 in Calm     64 % 0.00 in
21:32 43.2 °F 32.2 °F 30.27 in Calm     65 % 0.00 in
21:37 43.2 °F 32.2 °F 30.27 in Calm   1.0 mph 65 % 0.00 in
21:42 43.2 °F 32.2 °F 30.27 in Calm   1.0 mph 65 % 0.00 in
21:47 43.2 °F 32.2 °F 30.27 in Calm   1.0 mph 65 % 0.00 in
21:52 43.2 °F 32.5 °F 30.27 in Calm     66 % 0.00 in
21:57 43.3 °F 32.7 °F 30.27 in Calm     66 % 0.00 in
22:02 43.2 °F 32.2 °F 30.27 in Calm     65 % 0.00 in
22:07 43.2 °F 32.5 °F 30.27 in Calm     66 % 0.00 in
22:12 43.0 °F 32.4 °F 30.27 in Calm     66 % 0.00 in
22:17 42.8 °F 32.5 °F 30.27 in Calm     67 % 0.00 in
22:22 43.0 °F 33.1 °F 30.27 in Calm     68 % 0.00 in
22:27 42.6 °F 32.4 °F 30.27 in Calm     67 % 0.00 in
22:32 42.3 °F 32.2 °F 30.27 in Calm     67 % 0.00 in
22:37 41.9 °F 32.2 °F 30.27 in Calm     68 % 0.00 in
22:42 41.7 °F 32.4 °F 30.27 in Calm   1.0 mph 69 % 0.00 in
22:47 41.9 °F 32.5 °F 30.27 in Calm   1.0 mph 69 % 0.00 in
22:52 42.1 °F 32.7 °F 30.27 in Calm   1.0 mph 69 % 0.00 in
22:57 42.3 °F 32.9 °F 30.27 in Calm   1.0 mph 69 % 0.00 in
23:02 42.4 °F 32.7 °F 30.27 in Calm   1.0 mph 68 % 0.00 in
23:07 42.3 °F 32.5 °F 30.27 in Calm   1.0 mph 68 % 0.00 in
23:12 42.4 °F 32.7 °F 30.27 in Calm   1.0 mph 68 % 0.00 in
23:17 42.4 °F 32.2 °F 30.27 in Calm   1.0 mph 67 % 0.00 in
23:22 42.6 °F 32.7 °F 30.27 in Calm   1.0 mph 68 % 0.00 in
23:27 42.6 °F 32.4 °F 30.27 in Calm   1.0 mph 67 % 0.00 in
23:32 42.6 °F 32.4 °F 30.27 in Calm   1.0 mph 67 % 0.00 in
23:37 42.6 °F 32.4 °F 30.27 in Calm   1.0 mph 67 % 0.00 in
23:42 42.4 °F 32.2 °F 30.27 in Calm   1.0 mph 67 % 0.00 in
23:47 42.3 °F 32.2 °F 30.27 in Calm   1.0 mph 67 % 0.00 in
23:52 42.3 °F 32.2 °F 30.27 in Calm   1.0 mph 67 % 0.00 in
23:57 42.3 °F 32.2 °F 30.27 in Calm   1.0 mph 67 % 0.00 in
Spring, Texas: Villages of Bridgestone
Compliments of Weather Underground - 2.75 mb

Script developed by  Jim McMurry - jmcmurry@mwt.net Adapted for the template by  Wim van der Kuil - Leuven-Template.eu

You find our weather info also at:

UK Metoffice

WeatherCloud

Weather Underground

Mid-South Weather Network

AWEKAS

Citizen Weather Observer Program (CWOP)

HAMweather, WeatherForYou, PWS Weather

Equipment we use:

Weather-station
Davis Vantage Vue

Weather-program
Meteohub

Weather-server
Debian 7.9 x86 (Guest)

Provider
DreamHost

Davis Vantage Vue

Meteohub

Debian 7.9 x86 (Guest)

DreamHost